Ruth, NV (89319)

1:00 AM PST on February 07, 2016 (GMT -0800)
Murry Canyon | | Change Station
CLOSE
Current Station
Personal Weather Station
Location: Ely, NV
Elevation: 6526 ft
Nearby Weather Stations

Elev 6526 ft 39.23 °N, 114.90 °W | Updated 8 minutes ago

Partly Cloudy
Partly Cloudy
16.0 °F
Feels Like 16 °F
N
0.0
Wind Variable Wind from ESE

Today
High -- | Low -- °F
--% Chance of Precip.
Yesterday
High -- | Low -- °F
Precip. -- in
Pressure 30.58 in
Visibility 10.0 miles
Clouds Clear
Windchill 16 °F
Dew Point 9 °F
Humidity 74%
Rainfall 0.00 in
Snow Depth Not available.
6:41 AM 5:07 PM
Waning Crescent, 2% visible
METAR KELY 070853Z AUTO 16017KT 10SM CLR M13/M17 A3046 RMK AO2 SLP355 T11281167 58002 $
Pressure 30.58 in
Visibility 10.0 miles
Clouds Clear
Windchill 16 °F
Dew Point 9 °F
Humidity 74%
Rainfall 0.00 in
Snow Depth Not available.
6:41 AM 5:07 PM
Waning Crescent, 2% visible
METAR KELY 070853Z AUTO 16017KT 10SM CLR M13/M17 A3046 RMK AO2 SLP355 T11281167 58002 $

10-Day Weather Forecast

Almanac

Astronomy

Feb. 07, 2016 Rise Set
Actual Time
Civil Twilight
Nautical Twilight
Astronomical Twilight
Moon
Length of Visible Light
Length of Day
Tomorrow will be .
, % of the Moon is Illuminated

Today's Extremes

State Highs State Lows

Community

WunderPhotos

Upload Photos

1,891,171 photos uploaded!

WunderBlog® & News

Nearby

Air Quality

  Air Quality AQ Index Pollutant
Not available.

Snow Depth

Station Depth Elevation

Earthquake Activity

City Distance Mag. Time & Date
Minimum magnitude displayed is 2.5.

Coastal Water Temperatures

Place Temperature

Stations

Nearby Weather Stations

Station Location Temp. Windchill Dew Point Humidity Wind Precip. Elev Updated Type
                   

Watches & Warnings

There are currently no watches in effect.